Time;durP1;ratioP1;P1;durP2;ratioP2;P2;SDS_P1;SDS_P2;PMS_P1;PMS_P2;Temp;Humidity;BMP_temperature;BMP_pressure;BME280_temperature;BME280_humidity;BME280_pressure;Samples;Min_cycle;Max_cycle;Signal;HPM_P1;HPM_P2
2023/10/08 00:01:21;;;;;;;6.30;3.30;;;13.80;99.90;;;14.61;100.00;98946.16;5021965;28;20477;-82
2023/10/08 00:03:53;;;;;;;7.60;3.50;;;13.80;99.90;;;14.60;100.00;98949.81;5019097;28;20461;-83
2023/10/08 00:06:25;;;;;;;6.60;3.43;;;13.80;99.90;;;14.59;100.00;98947.34;5021162;28;20596;-82
2023/10/08 00:08:59;;;;;;;7.37;3.67;;;13.80;99.90;;;14.57;100.00;98947.56;5020359;28;20462;-83
2023/10/08 00:11:30;;;;;;;9.60;3.90;;;13.70;99.90;;;14.60;100.00;98956.88;5019964;28;20466;-83
2023/10/08 00:14:04;;;;;;;6.50;3.63;;;13.80;99.90;;;14.56;100.00;98945.91;5020369;28;21072;-82
2023/10/08 00:16:35;;;;;;;6.90;3.50;;;13.80;99.90;;;14.56;100.00;98945.91;5020719;28;20545;-82
2023/10/08 00:19:12;;;;;;;5.50;3.57;;;13.80;99.90;;;14.55;100.00;98952.19;5019720;28;20457;-83
2023/10/08 00:21:44;;;;;;;7.70;3.30;;;13.80;99.90;;;14.57;100.00;98952.00;5019802;28;20516;-83
2023/10/08 00:24:15;;;;;;;12.20;3.57;;;13.80;99.90;;;14.52;100.00;98949.94;5020577;28;20649;-83
2023/10/08 00:26:44;;;;;;;6.07;3.10;;;13.70;99.90;;;14.52;100.00;98954.38;5020352;28;20465;-83
2023/10/08 00:29:21;;;;;;;9.23;3.80;;;13.70;99.90;;;14.49;100.00;98952.94;5022263;28;20475;-82
2023/10/08 00:31:52;;;;;;;6.10;3.40;;;13.60;99.90;;;14.47;100.00;98947.03;5021422;28;20520;-82
2023/10/08 00:34:21;;;;;;;7.80;3.40;;;13.70;99.90;;;14.44;100.00;98947.41;5020521;28;20500;-83
2023/10/08 00:36:50;;;;;;;6.50;3.20;;;13.70;99.90;;;14.45;100.00;98951.69;5021052;28;20463;-82
2023/10/08 00:39:27;;;;;;;9.33;3.60;;;13.70;99.90;;;14.43;100.00;98945.81;5021817;28;20447;-83
2023/10/08 00:41:59;;;;;;;21.73;3.17;;;13.70;99.90;;;14.42;100.00;98941.53;5021029;28;20453;-83
2023/10/08 00:44:32;;;;;;;9.90;3.90;;;13.60;99.90;;;14.42;100.00;98946.81;5019637;28;20470;-83
2023/10/08 00:47:05;;;;;;;7.63;4.03;;;13.50;99.90;;;14.39;100.00;98935.84;5021718;28;20523;-83
2023/10/08 00:49:48;;;;;;;4.97;2.60;;;13.60;99.90;;;14.35;100.00;98938.03;5021354;28;20517;-83
2023/10/08 00:52:29;;;;;;;10.00;3.47;;;13.60;99.90;;;14.34;100.00;98940.84;5019924;28;20465;-83
2023/10/08 00:55:24;;;;;;;8.90;3.47;;;13.50;99.90;;;14.31;100.00;98925.41;5019481;28;20487;-83
2023/10/08 00:58:07;;;;;;;5.20;3.47;;;13.60;99.90;;;14.29;100.00;98924.78;5019546;28;20614;-82
2023/10/08 01:00:41;;;;;;;5.03;3.20;;;13.60;99.90;;;14.30;100.00;98924.59;5020580;28;20473;-83
2023/10/08 01:03:16;;;;;;;6.67;3.10;;;13.50;99.90;;;14.29;100.00;98924.78;5020139;28;20545;-83
2023/10/08 01:05:46;;;;;;;6.37;3.43;;;13.60;99.90;;;14.29;100.00;98909.81;5019252;28;20574;-82
2023/10/08 01:08:22;;;;;;;6.23;3.70;;;13.50;99.90;;;14.29;100.00;98922.97;5014885;28;20477;-83
2023/10/08 01:11:00;;;;;;;5.60;3.50;;;13.50;99.90;;;14.28;100.00;98910.81;5017841;28;20474;-82
2023/10/08 01:13:44;;;;;;;5.97;3.33;;;13.50;99.90;;;14.29;100.00;98911.63;5017014;28;20475;-82
2023/10/08 01:16:15;;;;;;;6.67;3.87;;;13.50;99.90;;;14.27;100.00;98914.44;5017759;28;20556;-82
2023/10/08 01:18:50;;;;;;;9.77;3.33;;;13.50;99.90;;;14.24;100.00;98909.56;5018429;28;20454;-83
2023/10/08 01:21:33;;;;;;;9.30;3.30;;;13.40;99.90;;;14.24;100.00;98917.44;5017752;28;20465;-83
2023/10/08 01:24:07;;;;;;;7.53;3.60;;;13.50;99.90;;;14.24;100.00;98922.72;5019212;28;20490;-83
2023/10/08 01:26:39;;;;;;;12.70;3.77;;;13.40;99.90;;;14.20;100.00;98918.81;5017165;28;20478;-83
2023/10/08 01:29:18;;;;;;;4.50;2.77;;;13.40;99.90;;;14.17;100.00;98913.94;5018983;28;20466;-82
2023/10/08 01:31:50;;;;;;;5.80;3.67;;;13.40;99.90;;;14.16;100.00;98909.69;5018243;28;20524;-82
2023/10/08 01:34:26;;;;;;;5.63;3.00;;;13.40;99.90;;;14.15;100.00;98905.44;5018180;28;20454;-82
2023/10/08 01:37:00;;;;;;;5.90;3.53;;;13.40;99.90;;;14.17;100.00;98911.31;5016088;28;20481;-83
2023/10/08 01:39:32;;;;;;;6.30;3.03;;;13.50;99.90;;;14.18;100.00;98914.78;5017068;28;20475;-83
2023/10/08 01:42:04;;;;;;;10.07;3.80;;;13.40;99.90;;;14.16;100.00;98912.31;5018581;28;20470;-83
2023/10/08 01:44:36;;;;;;;4.27;3.20;;;13.50;99.90;;;14.16;100.00;98917.56;5018120;28;20554;-83
2023/10/08 01:47:06;;;;;;;5.37;3.27;;;13.40;99.90;;;14.13;100.00;98912.69;5017300;28;21045;-83
2023/10/08 01:49:39;;;;;;;6.20;3.20;;;13.40;99.90;;;14.11;100.00;98919.97;5016798;28;20472;-82
2023/10/08 01:52:14;;;;;;;9.30;3.50;;;13.40;99.90;;;14.12;100.00;98916.34;5016086;28;20470;-83
2023/10/08 01:54:46;;;;;;;8.63;4.20;;;13.40;99.90;;;14.12;100.00;98913.72;5017176;28;20461;-83
2023/10/08 01:57:16;;;;;;;6.10;3.30;;;13.30;99.90;;;14.07;100.00;98913.44;5016441;28;20551;-83
2023/10/08 01:59:45;;;;;;;7.40;3.17;;;13.20;99.90;;;14.09;100.00;98911.47;5017671;28;20459;-82
2023/10/08 02:02:17;;;;;;;8.13;3.50;;;13.20;99.90;;;14.09;100.00;98914.09;5016224;28;20486;-83
2023/10/08 02:05:14;;;;;;;11.97;3.70;;;13.30;99.90;;;14.07;100.00;98905.56;5016138;28;20524;-83
2023/10/08 02:07:44;;;;;;;5.20;2.73;;;13.20;99.90;;;14.05;100.00;98913.66;5018944;28;21022;-83
2023/10/08 02:10:15;;;;;;;5.13;3.00;;;13.20;99.90;;;14.05;100.00;98913.66;5018829;28;20494;-83
2023/10/08 02:12:45;;;;;;;5.20;3.47;;;13.10;99.90;;;14.03;100.00;98907.75;5017915;28;20816;-83
2023/10/08 02:15:14;;;;;;;5.93;3.00;;;13.10;99.90;;;14.00;100.00;98907.31;5017128;28;20987;-83
2023/10/08 02:17:46;;;;;;;7.53;3.60;;;13.20;99.90;;;14.00;100.00;98913.38;5015248;28;20471;-82
2023/10/08 02:20:18;;;;;;;6.30;3.20;;;13.20;99.90;;;13.99;100.00;98921.44;5016226;28;21287;-82
2023/10/08 02:22:49;;;;;;;11.40;4.07;;;13.10;99.90;;;13.95;100.00;98915.75;5019544;28;20513;-82
2023/10/08 02:25:19;;;;;;;5.47;3.40;;;13.00;99.90;;;13.92;100.00;98920.56;5018041;28;20991;-83
2023/10/08 02:27:49;;;;;;;9.27;3.10;;;13.00;99.90;;;13.88;100.00;98914.06;5018771;28;20466;-83
2023/10/08 02:30:18;;;;;;;6.00;2.80;;;13.00;99.90;;;13.86;100.00;98921.31;5017405;28;20470;-83
2023/10/08 02:32:49;;;;;;;8.93;3.53;;;13.00;99.90;;;13.85;100.00;98922.34;5017995;28;20482;-83
2023/10/08 02:35:22;;;;;;;5.90;3.10;;;12.90;99.90;;;13.81;100.00;98923.72;5020475;28;21407;-83
2023/10/08 02:37:54;;;;;;;6.70;3.27;;;13.00;99.90;;;13.78;100.00;98914.34;5020090;28;20455;-83
2023/10/08 02:40:26;;;;;;;9.13;3.47;;;13.00;99.90;;;13.78;100.00;98913.56;5021158;28;20458;-83
2023/10/08 02:42:58;;;;;;;6.53;2.77;;;13.00;99.90;;;13.79;100.00;98920.44;5020115;28;20824;-82
2023/10/08 02:45:29;;;;;;;7.00;3.00;;;12.90;99.90;;;13.73;100.00;98913.28;5020086;28;20562;-83
2023/10/08 02:47:59;;;;;;;6.60;3.27;;;13.00;99.90;;;13.74;100.00;98917.56;5020238;28;20461;-82
2023/10/08 02:50:28;;;;;;;5.50;3.40;;;12.90;99.90;;;13.70;100.00;98929.44;5019496;28;21001;-83
2023/10/08 02:53:03;;;;;;;8.00;3.53;;;12.80;99.90;;;13.68;100.00;98926.16;5020048;28;20458;-83
2023/10/08 02:55:35;;;;;;;9.53;4.23;;;12.70;99.90;;;13.67;100.00;98927.19;5018239;28;20487;-82
2023/10/08 02:58:06;;;;;;;5.33;3.40;;;12.80;99.90;;;13.64;100.00;98924.94;5019774;28;20457;-83
2023/10/08 03:00:36;;;;;;;9.13;3.80;;;12.90;99.90;;;13.59;100.00;98926.28;5016936;28;20522;-83
2023/10/08 03:03:15;;;;;;;7.80;3.30;;;12.90;99.90;;;13.61;100.00;98923.47;5017661;28;20470;-83
2023/10/08 03:05:47;;;;;;;7.97;3.97;;;12.80;99.90;;;13.59;100.00;98918.41;5016802;28;20563;-83
2023/10/08 03:08:20;;;;;;;6.83;2.90;;;12.80;99.90;;;13.58;100.00;98918.59;5016884;28;20532;-83
2023/10/08 03:10:55;;;;;;;8.90;4.00;;;12.80;99.90;;;13.58;100.00;98908.06;5016672;28;20516;-83
2023/10/08 03:13:27;;;;;;;10.33;3.13;;;12.90;99.90;;;13.55;100.00;98919.78;5015416;28;20547;-83
2023/10/08 03:16:08;;;;;;;5.87;3.07;;;12.90;99.90;;;13.49;100.00;98914.44;5016181;28;20864;-84
2023/10/08 03:18:50;;;;;;;6.40;3.00;;;12.70;99.90;;;13.48;100.00;98908.38;5016876;28;20485;-82
2023/10/08 03:21:43;;;;;;;5.07;3.10;;;12.60;99.90;;;13.47;100.00;98903.28;5015242;28;20501;-82
2023/10/08 03:24:29;;;;;;;6.33;3.30;;;12.60;99.90;;;13.44;100.00;98904.47;5016779;28;20462;-83
2023/10/08 03:27:07;;;;;;;10.67;3.37;;;12.60;99.90;;;13.47;100.00;98895.41;5015574;28;20965;-83
2023/10/08 03:29:41;;;;;;;7.40;3.50;;;12.70;99.90;;;13.44;100.00;98891.34;5019024;28;21228;-82
2023/10/08 03:32:16;;;;;;;6.87;3.63;;;12.60;99.90;;;13.39;100.00;98893.72;5018899;28;20492;-81
2023/10/08 03:34:48;;;;;;;7.07;3.43;;;12.50;99.90;;;13.40;100.00;98895.31;5021150;28;20452;-82
2023/10/08 03:37:29;;;;;;;8.10;3.40;;;12.60;99.90;;;13.38;100.00;98886.81;5022001;28;20482;-83
2023/10/08 03:40:22;;;;;;;7.43;3.20;;;12.60;99.90;;;13.39;100.00;98885.84;5021280;28;20523;-82
2023/10/08 03:42:56;;;;;;;7.10;3.53;;;12.60;99.90;;;13.38;100.00;98894.72;5021969;28;20824;-83
2023/10/08 03:48:16;;;;;;;6.20;3.10;;;12.50;99.90;;;13.34;100.00;98896.06;5021596;28;20446;-82
2023/10/08 03:50:56;;;;;;;8.27;3.40;;;12.50;99.90;;;13.33;100.00;98889.19;5021417;28;20466;-83
2023/10/08 03:53:33;;;;;;;5.83;2.97;;;12.60;99.90;;;13.34;100.00;98887.38;5020591;28;20459;-82
2023/10/08 03:56:06;;;;;;;5.67;2.90;;;12.50;99.90;;;13.33;100.00;98893.63;5020605;28;20958;-82
2023/10/08 03:58:41;;;;;;;7.60;3.47;;;12.50;99.90;;;13.30;100.00;98894.81;5022789;28;20459;-83
2023/10/08 04:01:34;;;;;;;11.63;3.20;;;12.40;99.90;;;13.24;100.00;98895.53;5022989;28;21000;-82
2023/10/08 04:04:06;;;;;;;4.40;3.23;;;12.30;99.90;;;13.21;100.00;98895.09;5021012;28;20458;-82
2023/10/08 04:06:38;;;;;;;6.37;3.60;;;12.40;99.90;;;13.23;100.00;98899.16;5019201;28;21009;-83
2023/10/08 04:09:11;;;;;;;5.60;3.10;;;12.30;99.90;;;13.22;100.00;98902.81;5019377;28;20553;-83
2023/10/08 04:11:55;;;;;;;5.13;3.33;;;12.30;99.90;;;13.19;100.00;98908.38;5019197;28;20471;-83
2023/10/08 04:14:30;;;;;;;6.20;2.80;;;12.20;99.90;;;13.21;100.00;98914.28;5019245;28;20830;-83
2023/10/08 04:17:00;;;;;;;5.80;2.90;;;12.20;99.90;;;13.20;100.00;98919.72;5021635;28;20497;-82
2023/10/08 04:19:31;;;;;;;8.00;3.03;;;12.20;99.90;;;13.18;100.00;98922.53;5019512;28;20488;-82
2023/10/08 04:22:03;;;;;;;9.90;3.27;;;12.20;99.90;;;13.16;100.00;98919.25;5019999;28;20466;-83
2023/10/08 04:24:35;;;;;;;6.67;3.27;;;12.20;99.90;;;13.13;100.00;98918.81;5020115;28;20881;-83
2023/10/08 04:27:09;;;;;;;12.63;3.67;;;12.20;99.90;;;13.13;100.00;98916.19;5019809;28;20465;-82
2023/10/08 04:29:42;;;;;;;6.33;3.70;;;12.20;99.90;;;13.06;100.00;98916.88;5016962;28;20541;-83
2023/10/08 04:32:20;;;;;;;11.10;3.23;;;12.20;99.90;;;13.07;100.00;98907.19;5019965;28;20468;-82
2023/10/08 04:34:52;;;;;;;5.87;3.00;;;12.20;99.90;;;13.08;100.00;98906.22;5019974;28;20462;-84
2023/10/08 04:37:22;;;;;;;13.13;5.03;;;12.10;99.90;;;13.05;100.00;98901.31;5020466;28;20508;-83
2023/10/08 04:39:59;;;;;;;7.97;3.00;;;12.10;99.90;;;13.04;100.00;98899.69;5021998;28;20876;-82
2023/10/08 04:42:29;;;;;;;8.37;3.50;;;12.10;99.90;;;13.00;100.00;98901.03;5017747;28;20960;-82
2023/10/08 04:44:59;;;;;;;7.80;3.30;;;12.10;99.90;;;12.99;100.00;98902.84;5019994;28;20558;-83
2023/10/08 04:47:35;;;;;;;4.73;3.10;;;12.00;99.90;;;12.94;100.00;98899.97;5020926;28;20560;-83
2023/10/08 04:50:14;;;;;;;5.50;3.40;;;11.90;99.90;;;12.93;100.00;98913.25;5018605;28;20532;-82
2023/10/08 04:52:58;;;;;;;10.53;4.20;;;11.90;99.90;;;12.91;100.00;98931.00;5019869;28;20480;-84
2023/10/08 04:55:29;;;;;;;16.00;5.97;;;11.90;99.90;;;12.88;100.00;98942.66;5020229;28;20475;-82
2023/10/08 04:58:04;;;;;;;6.33;3.57;;;12.00;99.90;;;12.86;100.00;98947.28;5017506;28;20502;-83
2023/10/08 05:00:53;;;;;;;6.23;3.40;;;11.90;99.90;;;12.81;100.00;98941.75;5019960;28;20470;-82
2023/10/08 05:03:23;;;;;;;9.83;3.80;;;11.90;99.90;;;12.78;100.00;98946.53;5020325;28;20462;-82
2023/10/08 05:06:07;;;;;;;7.40;3.27;;;12.00;99.90;;;12.80;100.00;98955.06;5019836;28;20538;-82
2023/10/08 05:08:55;;;;;;;7.87;3.53;;;12.00;99.90;;;12.76;100.00;98952.00;5019608;28;20464;-81
2023/10/08 05:11:46;;;;;;;6.80;4.00;;;12.10;99.90;;;12.71;100.00;98945.63;5018168;28;20454;-81
2023/10/08 05:14:28;;;;;;;7.50;3.63;;;12.00;99.90;;;12.71;100.00;98937.75;5018154;28;20465;-82
2023/10/08 05:17:03;;;;;;;5.93;3.80;;;11.90;99.90;;;12.75;100.00;98926.72;5018353;28;20493;-82
2023/10/08 05:19:50;;;;;;;7.63;3.60;;;11.90;99.90;;;12.72;100.00;98932.34;5021789;28;20470;-81
2023/10/08 05:22:43;;;;;;;9.27;3.70;;;11.80;99.90;;;12.73;100.00;98933.16;5021183;28;20473;-82
2023/10/08 05:25:34;;;;;;;9.60;3.30;;;11.90;99.90;;;12.73;100.00;98933.16;5022625;28;20472;-81
2023/10/08 05:28:11;;;;;;;3.67;2.73;;;11.70;99.90;;;12.66;100.00;98934.88;5020386;28;20463;-81
2023/10/08 05:30:41;;;;;;;7.13;3.63;;;11.80;99.90;;;12.61;100.00;98936.22;5019501;28;21040;-82
2023/10/08 05:33:25;;;;;;;8.53;3.37;;;11.70;99.90;;;12.57;100.00;98929.69;5019477;28;20455;-81
2023/10/08 05:35:56;;;;;;;6.40;3.20;;;11.60;99.90;;;12.55;100.00;98938.72;5019469;28;20482;-82
2023/10/08 05:38:49;;;;;;;4.80;3.03;;;11.70;99.90;;;12.55;100.00;98942.16;5020196;28;20852;-81
2023/10/08 05:41:38;;;;;;;6.00;3.30;;;11.60;99.90;;;12.52;100.00;98939.09;5020499;28;20453;-81
2023/10/08 05:44:38;;;;;;;8.00;3.60;;;11.60;99.90;;;12.50;100.00;98939.25;5018276;28;20459;-81
2023/10/08 05:47:28;;;;;;;6.83;4.03;;;11.60;99.90;;;12.53;100.00;98944.13;5019634;28;20478;-81
2023/10/08 05:53:01;;;;;;;8.20;3.33;;;11.60;99.90;;;12.56;100.00;98949.03;5017304;28;20554;-81
2023/10/08 05:55:35;;;;;;;5.77;4.10;;;11.60;99.90;;;12.56;100.00;98953.50;5019690;28;20458;-81
2023/10/08 05:58:35;;;;;;;6.17;3.63;;;11.70;99.90;;;12.54;100.00;98945.78;5019751;28;20494;-83
2023/10/08 06:01:08;;;;;;;19.20;6.73;;;11.60;99.90;;;12.54;100.00;98953.66;5017796;28;20544;-87
2023/10/08 06:03:48;;;;;;;6.97;4.23;;;11.60;99.90;;;12.50;100.00;98955.00;5018895;28;20840;-82
2023/10/08 06:06:35;;;;;;;6.10;3.23;;;11.60;99.90;;;12.51;100.00;98961.88;5017925;28;20485;-82
2023/10/08 06:12:19;;;;;;;4.83;3.33;;;11.70;99.90;;;12.55;100.00;98963.16;5013733;28;20532;-82
2023/10/08 06:20:28;;;;;;;10.87;4.43;;;11.80;99.90;;;12.57;100.00;98950.66;5018485;28;20545;-82
2023/10/08 06:23:06;;;;;;;6.43;3.80;;;11.70;99.90;;;12.60;100.00;98944.25;5018076;28;20459;-82
2023/10/08 06:25:44;;;;;;;8.13;4.10;;;11.70;99.90;;;12.58;100.00;98952.31;5016634;28;20544;-80
2023/10/08 06:28:19;;;;;;;9.67;5.63;;;11.80;99.90;;;12.61;100.00;98945.88;5016284;28;20472;-79
2023/10/08 06:30:53;;;;;;;6.97;3.90;;;11.80;99.90;;;12.59;100.00;98948.69;5015259;28;20454;-80
2023/10/08 06:33:30;;;;;;;9.03;4.00;;;11.90;99.90;;;12.63;100.00;98951.78;5018158;28;20524;-80
2023/10/08 06:36:02;;;;;;;11.20;3.83;;;11.80;99.90;;;12.65;100.00;98952.41;5017508;28;20540;-80
2023/10/08 06:38:34;;;;;;;6.97;4.77;;;11.80;99.90;;;12.67;100.00;98953.03;5017692;28;20499;-80
2023/10/08 06:41:08;;;;;;;9.00;3.80;;;11.80;99.90;;;12.71;100.00;98961.38;5017881;28;20458;-80
2023/10/08 06:43:42;;;;;;;5.30;3.27;;;11.80;99.90;;;12.72;100.00;98971.69;5018287;28;20457;-80
2023/10/08 06:46:13;;;;;;;9.57;4.10;;;11.80;99.90;;;12.72;100.00;98974.31;5016762;28;20462;-79
2023/10/08 06:48:45;;;;;;;9.27;4.17;;;11.80;99.90;;;12.74;100.00;98971.53;5017756;28;20523;-79
2023/10/08 06:51:14;;;;;;;7.33;3.80;;;11.80;99.90;;;12.79;100.00;98995.44;5015873;28;20552;-80
2023/10/08 06:53:47;;;;;;;7.43;4.00;;;11.80;99.90;;;12.75;100.00;98989.72;5016937;28;20459;-79
2023/10/08 06:56:19;;;;;;;8.67;3.97;;;11.90;99.90;;;12.73;100.00;98996.16;5016606;28;20467;-79
2023/10/08 06:58:52;;;;;;;7.40;3.50;;;11.90;99.90;;;12.75;100.00;99004.66;5016020;28;20491;-79
2023/10/08 07:01:24;;;;;;;7.40;4.40;;;11.90;99.90;;;12.77;100.00;99014.00;5002073;28;20466;-80
2023/10/08 07:04:03;;;;;;;14.40;4.10;;;12.00;99.90;;;12.80;100.00;99015.44;5018196;28;20835;-80
2023/10/08 07:06:33;;;;;;;6.83;4.20;;;12.10;99.90;;;12.86;100.00;99022.59;5016191;28;20478;-80
2023/10/08 07:09:13;;;;;;;7.17;3.63;;;12.10;99.90;;;12.91;100.00;99025.53;5015421;28;21015;-80
2023/10/08 07:11:45;;;;;;;5.97;3.30;;;12.10;99.90;;;12.96;100.00;99033.66;5015853;28;20849;-79
2023/10/08 07:14:17;;;;;;;10.13;3.97;;;12.10;99.90;;;12.96;100.00;99034.50;5014841;28;20469;-79
2023/10/08 07:16:52;;;;;;;11.83;4.37;;;12.10;99.90;;;13.01;100.00;99026.91;5014776;28;20459;-80
2023/10/08 07:19:23;;;;;;;8.70;4.00;;;12.10;99.90;;;13.05;100.00;99030.78;5015943;28;20502;-79
2023/10/08 07:22:03;;;;;;;52.90;25.30;;;12.20;99.90;;;13.09;100.00;99020.78;5015937;28;20468;-79
2023/10/08 07:24:36;;;;;;;22.93;9.27;;;12.20;99.90;;;13.10;100.00;99022.41;5018005;28;20486;-79
2023/10/08 07:27:08;;;;;;;8.10;5.53;;;12.30;99.90;;;13.15;100.00;99027.13;5016424;28;20465;-79
2023/10/08 07:29:39;;;;;;;12.97;6.53;;;12.30;99.90;;;13.19;100.00;99023.94;5017335;28;20467;-80
2023/10/08 07:32:11;;;;;;;8.97;5.10;;;12.30;99.90;;;13.23;100.00;99040.16;5017442;28;20473;-79
2023/10/08 07:34:44;;;;;;;14.07;5.10;;;12.30;99.90;;;13.25;100.00;99036.38;5018266;28;20478;-79
2023/10/08 07:37:16;;;;;;;7.80;3.60;;;12.40;99.90;;;13.27;100.00;99029.13;5016515;28;20447;-79
2023/10/08 07:39:48;;;;;;;5.70;3.40;;;12.40;99.90;;;13.27;100.00;99028.31;5017356;28;20502;-79
2023/10/08 07:42:18;;;;;;;11.47;5.10;;;12.40;99.90;;;13.31;100.00;99038.28;5017230;28;20469;-79
2023/10/08 07:44:54;;;;;;;10.33;4.97;;;12.50;99.90;;;13.37;100.00;99031.50;5015345;28;20475;-80
2023/10/08 07:47:23;;;;;;;8.63;4.87;;;12.50;99.90;;;13.39;100.00;99032.16;5016002;28;20558;-79
2023/10/08 07:49:54;;;;;;;6.60;3.60;;;12.50;99.90;;;13.43;100.00;99031.59;5016754;28;20489;-79
2023/10/08 07:52:25;;;;;;;9.77;4.60;;;12.60;99.90;;;13.48;100.00;99034.50;5016040;28;20869;-80
2023/10/08 07:54:56;;;;;;;12.73;4.83;;;12.60;99.90;;;13.54;100.00;99033.75;5016432;28;20473;-80
2023/10/08 07:57:30;;;;;;;7.40;3.77;;;12.70;99.90;;;13.59;100.00;99030.59;5016291;28;20466;-80
2023/10/08 08:00:18;;;;;;;7.70;4.20;;;12.70;99.90;;;13.66;100.00;99022.81;5017504;28;20929;-79
2023/10/08 08:02:47;;;;;;;11.97;4.67;;;12.80;99.90;;;13.71;100.00;99029.13;5016619;28;20480;-79
2023/10/08 08:05:17;;;;;;;8.80;4.00;;;12.90;99.90;;;13.76;100.00;99031.22;5021443;28;20598;-80
2023/10/08 08:07:49;;;;;;;10.37;5.33;;;12.90;99.90;;;13.83;100.00;99029.50;5016875;28;20476;-79
2023/10/08 08:10:23;;;;;;;8.47;4.47;;;13.00;99.90;;;13.89;100.00;99031.38;5017183;28;20589;-79
2023/10/08 08:12:56;;;;;;;8.70;3.83;;;13.00;99.90;;;13.93;100.00;99038.72;5014907;28;20481;-80
2023/10/08 08:15:28;;;;;;;6.20;3.33;;;13.10;99.90;;;13.99;100.00;99042.44;5015372;28;20524;-80
2023/10/08 08:17:58;;;;;;;26.80;16.57;;;13.10;99.90;;;14.03;100.00;99038.44;5017481;28;20474;-79
2023/10/08 08:20:38;;;;;;;18.83;9.33;;;13.20;99.90;;;14.08;100.00;99033.44;5019408;28;20826;-80
2023/10/08 08:23:08;;;;;;;13.73;8.47;;;13.30;99.90;;;14.13;100.00;99046.84;5018758;28;20483;-79
2023/10/08 08:28:25;;;;;;;5.53;3.67;;;13.40;99.90;;;14.23;100.00;99034.22;5018845;28;20498;-79
2023/10/08 08:30:55;;;;;;;7.50;3.60;;;13.50;99.90;;;14.30;100.00;99029.03;5019235;28;20965;-80
2023/10/08 08:33:29;;;;;;;5.37;3.10;;;13.50;99.90;;;14.34;100.00;99025.88;5019363;28;20461;-79
2023/10/08 08:36:05;;;;;;;6.40;3.70;;;13.60;99.90;;;14.38;100.00;99032.38;5021731;28;20466;-79
2023/10/08 08:38:36;;;;;;;7.23;3.67;;;13.70;99.90;;;14.45;100.00;99037.72;5020315;28;20492;-79
2023/10/08 08:41:07;;;;;;;7.43;3.97;;;13.80;99.90;;;14.51;100.00;99042.22;5019293;28;20466;-79
2023/10/08 08:43:38;;;;;;;9.17;3.77;;;13.80;99.90;;;14.55;100.00;99041.66;5021361;28;20474;-78
2023/10/08 08:46:12;;;;;;;7.00;3.63;;;13.90;99.90;;;14.59;100.00;99045.56;5017939;28;20546;-79
2023/10/08 08:48:45;;;;;;;11.37;3.90;;;14.00;99.90;;;14.65;100.00;99053.72;5018077;28;20478;-80
2023/10/08 08:51:15;;;;;;;6.43;3.83;;;14.10;99.90;;;14.70;100.00;99053.97;5019347;28;21105;-80
2023/10/08 08:53:46;;;;;;;7.70;3.70;;;14.10;99.90;;;14.75;100.00;99048.97;5019244;28;20474;-80
2023/10/08 08:56:19;;;;;;;7.43;3.50;;;14.10;99.90;;;14.78;100.00;99052.03;5020664;28;20462;-80
2023/10/08 08:58:50;;;;;;;10.63;3.23;;;14.20;99.90;;;14.83;100.00;99041.72;5018141;28;21045;-80
2023/10/08 09:01:21;;;;;;;8.80;3.30;;;14.20;99.90;;;14.85;100.00;99049.47;5019535;28;20549;-80
2023/10/08 09:03:52;;;;;;;6.40;3.40;;;14.20;99.90;;;14.90;100.00;99054.94;5017371;28;21427;-80
2023/10/08 09:06:25;;;;;;;10.30;3.60;;;14.20;99.90;;;14.93;100.00;99057.19;5018979;28;20852;-80
2023/10/08 09:09:11;;;;;;;218.80;115.23;;;14.20;99.90;;;14.96;100.00;99048.94;5018324;28;20999;-81
2023/10/08 09:11:44;;;;;;;119.60;60.43;;;14.20;99.90;;;14.99;100.00;99045.94;5017196;28;20510;-80
2023/10/08 09:14:15;;;;;;;20.73;11.23;;;14.30;99.90;;;15.02;100.00;99050.81;5021641;28;20462;-79
2023/10/08 09:16:46;;;;;;;9.93;5.60;;;14.30;99.90;;;15.04;100.00;99044.34;5016210;28;20565;-79
2023/10/08 09:19:18;;;;;;;11.93;7.47;;;14.30;99.90;;;15.09;100.00;99046.41;5018291;28;20505;-79
2023/10/08 09:22:04;;;;;;;10.63;3.97;;;14.40;99.90;;;15.13;100.00;99031.03;5019293;28;20526;-79
2023/10/08 09:24:37;;;;;;;6.60;3.57;;;14.40;99.90;;;15.16;100.00;99039.38;5019691;28;20516;-79
2023/10/08 09:27:13;;;;;;;8.07;3.30;;;14.50;99.90;;;15.18;100.00;99037.34;5017477;28;20885;-78
2023/10/08 09:29:43;;;;;;;12.57;4.20;;;14.50;99.90;;;15.21;100.00;99049.31;5018765;28;20466;-79
2023/10/08 09:32:23;;;;;;;8.47;4.13;;;14.60;99.90;;;15.26;100.00;99053.03;5017298;28;20462;-78
2023/10/08 09:34:54;;;;;;;45.97;25.10;;;14.60;99.90;;;15.29;100.00;99052.63;5018637;28;20998;-79
2023/10/08 09:37:24;;;;;;;22.63;10.33;;;14.60;99.90;;;15.33;100.00;99059.16;5016443;28;20499;-79
2023/10/08 09:39:55;;;;;;;7.00;4.10;;;14.60;99.90;;;15.38;100.00;99056.75;5018583;28;20498;-78
2023/10/08 09:42:26;;;;;;;6.67;3.80;;;14.70;99.90;;;15.42;100.00;99055.34;5016368;28;20475;-79
2023/10/08 09:44:56;;;;;;;98.67;47.53;;;14.80;99.90;;;15.46;100.00;99051.34;5017832;28;20519;-78
2023/10/08 09:47:31;;;;;;;25.43;12.10;;;14.80;99.90;;;15.49;100.00;99045.69;5019940;28;20454;-78
2023/10/08 09:50:07;;;;;;;11.47;4.90;;;14.90;99.90;;;15.53;100.00;99043.50;5017311;28;20839;-77
2023/10/08 09:52:46;;;;;;;6.47;3.60;;;14.90;99.90;;;15.57;100.00;99039.47;5015713;28;20471;-77
2023/10/08 09:55:20;;;;;;;8.00;4.23;;;15.00;99.90;;;15.62;100.00;99036.25;5017447;28;20501;-77
2023/10/08 09:57:51;;;;;;;10.53;3.77;;;15.00;99.90;;;15.66;100.00;99037.47;5019198;28;20958;-77
2023/10/08 10:00:30;;;;;;;8.20;3.17;;;15.10;99.90;;;15.73;100.00;99030.41;5019792;28;20911;-77
2023/10/08 10:03:01;;;;;;;7.27;3.50;;;15.20;99.90;;;15.85;100.00;99036.78;5017440;28;20467;-77
2023/10/08 10:05:34;;;;;;;8.30;4.03;;;15.30;99.90;;;15.94;100.00;99035.59;5018000;28;20487;-77
2023/10/08 10:08:09;;;;;;;6.90;4.10;;;15.40;99.90;;;16.02;100.00;99024.88;5016703;28;20457;-77
2023/10/08 10:10:43;;;;;;;9.30;4.23;;;15.40;99.90;;;16.13;100.00;99029.59;5015741;28;20462;-77
2023/10/08 10:13:14;;;;;;;5.67;3.60;;;15.60;99.90;;;16.20;100.00;99034.88;5016050;28;22338;-77
2023/10/08 10:15:44;;;;;;;12.80;4.10;;;15.60;99.90;;;16.36;100.00;99029.22;5017716;28;20458;-77
2023/10/08 10:18:30;;;;;;;10.43;3.63;;;15.80;99.90;;;16.43;100.00;99035.34;5017035;28;20517;-76
2023/10/08 10:21:21;;;;;;;5.93;3.10;;;15.80;99.90;;;16.51;100.00;99032.53;5017562;28;20494;-77
2023/10/08 10:23:51;;;;;;;9.67;4.33;;;15.90;99.90;;;16.60;100.00;99032.16;5017524;28;20956;-77
2023/10/08 10:26:27;;;;;;;8.93;4.27;;;16.00;99.90;;;16.74;100.00;99027.69;5019724;28;20505;-77
2023/10/08 10:29:22;;;;;;;7.83;4.07;;;16.10;99.90;;;16.88;100.00;99028.50;5017536;28;20462;-77
2023/10/08 10:31:54;;;;;;;11.60;3.40;;;16.30;99.90;;;16.96;100.00;99030.97;5016310;28;20810;-77
2023/10/08 10:34:27;;;;;;;11.30;3.30;;;16.30;99.90;;;17.03;100.00;99031.78;5016773;28;20465;-77
2023/10/08 10:37:02;;;;;;;9.73;3.63;;;16.40;99.90;;;17.11;100.00;99023.66;5018516;28;20508;-77
2023/10/08 10:39:39;;;;;;;9.70;3.77;;;16.50;99.90;;;17.24;100.00;99018.34;5016287;28;20498;-77
2023/10/08 10:42:20;;;;;;;17.77;4.60;;;16.70;99.90;;;17.36;100.00;99021.16;5016839;28;20462;-77
2023/10/08 10:44:53;;;;;;;19.00;3.97;;;16.80;99.90;;;17.40;100.00;99028.47;5017795;28;20894;-77
2023/10/08 10:47:42;;;;;;;9.60;3.83;;;16.80;99.90;;;17.42;100.00;99021.16;5017753;28;20536;-77
2023/10/08 10:52:57;;;;;;;13.13;4.63;;;16.90;99.90;;;17.47;100.00;99015.25;5014654;28;20455;-77
2023/10/08 10:55:31;;;;;;;3.93;2.97;;;17.00;99.90;;;17.57;100.00;99026.22;5016671;28;20467;-77
2023/10/08 10:58:15;;;;;;;10.53;3.77;;;17.00;99.90;;;17.62;100.00;99020.31;5018391;28;21174;-77
2023/10/08 11:00:47;;;;;;;8.23;3.87;;;17.10;99.90;;;17.68;100.00;99020.31;5015637;28;20503;-77
2023/10/08 11:03:23;;;;;;;7.53;3.33;;;17.20;99.90;;;17.72;100.00;99012.75;5018739;28;20461;-77